Time;durP1;ratioP1;P1;durP2;ratioP2;P2;SDS_P1;SDS_P2;PMS_P1;PMS_P2;Temp;Humidity;BMP_temperature;BMP_pressure;BME280_temperature;BME280_humidity;BME280_pressure;Samples;Min_cycle;Max_cycle;Signal;HPM_P1;HPM_P2
2021/04/03 00:00:04;;;;;;;6.68;5.53;;;5.60;93.70;;;;;;4813093;29;20248;-85
2021/04/03 00:02:31;;;;;;;6.20;4.95;;;5.60;93.60;;;;;;4812835;29;20238;-83
2021/04/03 00:04:58;;;;;;;7.60;6.03;;;5.60;93.80;;;;;;4813672;29;20214;-85
2021/04/03 00:07:27;;;;;;;10.55;6.10;;;5.60;93.70;;;;;;4813848;29;20245;-86
2021/04/03 00:09:53;;;;;;;7.65;5.70;;;5.60;93.60;;;;;;4813034;29;20214;-85
2021/04/03 00:12:19;;;;;;;6.40;5.82;;;5.60;93.60;;;;;;4812863;29;20218;-85
2021/04/03 00:14:46;;;;;;;6.28;4.70;;;5.60;93.50;;;;;;4812928;29;20307;-85
2021/04/03 00:17:12;;;;;;;6.55;5.95;;;5.50;93.30;;;;;;4813388;29;20242;-85
2021/04/03 00:19:39;;;;;;;8.00;6.45;;;5.50;93.40;;;;;;4813328;29;20297;-85
2021/04/03 00:22:06;;;;;;;6.68;4.82;;;5.50;93.30;;;;;;4812634;29;20242;-85
2021/04/03 00:24:34;;;;;;;10.10;6.20;;;5.50;93.20;;;;;;4813234;29;20637;-85
2021/04/03 00:27:00;;;;;;;7.65;5.72;;;5.50;93.20;;;;;;4812717;29;20241;-84
2021/04/03 00:29:28;;;;;;;6.28;4.75;;;5.40;93.00;;;;;;4812818;29;20222;-85
2021/04/03 00:31:55;;;;;;;11.05;7.13;;;5.60;93.00;;;;;;4813188;29;20230;-85
2021/04/03 00:34:21;;;;;;;7.22;6.63;;;5.60;92.90;;;;;;4812427;29;20246;-86
2021/04/03 00:36:50;;;;;;;7.63;6.53;;;5.60;92.90;;;;;;4813081;29;20251;-86
2021/04/03 00:39:16;;;;;;;14.68;6.80;;;5.60;93.00;;;;;;4812237;29;20558;-85
2021/04/03 00:41:43;;;;;;;6.70;6.00;;;5.60;93.20;;;;;;4811265;29;20625;-85
2021/04/03 00:44:09;;;;;;;8.23;6.50;;;5.70;93.30;;;;;;4810764;29;20763;-85
2021/04/03 00:46:37;;;;;;;7.07;6.47;;;5.70;93.20;;;;;;4810732;29;20698;-86
2021/04/03 00:49:06;;;;;;;9.63;6.57;;;5.80;93.00;;;;;;4811901;29;20214;-86
2021/04/03 00:51:33;;;;;;;6.95;6.25;;;5.80;92.50;;;;;;4811217;29;20218;-84
2021/04/03 00:54:00;;;;;;;7.93;6.70;;;5.80;92.10;;;;;;4812093;29;20241;-83
2021/04/03 00:56:27;;;;;;;12.15;7.05;;;5.70;91.50;;;;;;4811156;29;20214;-85
2021/04/03 00:58:54;;;;;;;6.82;5.60;;;5.70;91.10;;;;;;4811946;29;20214;-85
2021/04/03 01:01:20;;;;;;;6.78;4.75;;;5.60;90.80;;;;;;4810972;29;20234;-84
2021/04/03 01:03:47;;;;;;;10.40;6.43;;;5.60;90.80;;;;;;4811901;29;20226;-85
2021/04/03 01:06:15;;;;;;;7.05;6.28;;;5.50;90.70;;;;;;4811296;29;20301;-85
2021/04/03 01:08:41;;;;;;;7.07;6.30;;;5.50;90.80;;;;;;4810451;29;20244;-85
2021/04/03 01:11:08;;;;;;;10.23;6.30;;;5.60;90.90;;;;;;4811521;29;20218;-85
2021/04/03 01:14:07;;;;;;;9.45;5.55;;;5.50;90.60;;;;;;4824268;29;20219;-84
2021/04/03 01:16:39;;;;;;;8.88;6.38;;;5.40;90.70;;;;;;4827269;29;20199;-81
2021/04/03 01:19:22;;;;;;;8.63;6.07;;;5.30;90.80;;;;;;4826173;29;20283;-85
2021/04/03 01:22:17;;;;;;;7.57;4.72;;;5.30;91.10;;;;;;4811019;29;20245;-83
2021/04/03 01:24:59;;;;;;;6.85;6.15;;;5.30;90.90;;;;;;4811766;29;20210;-85
2021/04/03 01:27:27;;;;;;;6.68;6.10;;;5.30;90.70;;;;;;4810784;29;20234;-85
2021/04/03 01:30:12;;;;;;;8.00;5.65;;;5.30;90.50;;;;;;4811243;29;20218;-84
2021/04/03 01:32:55;;;;;;;8.38;6.15;;;5.30;90.50;;;;;;4810428;29;20271;-85
2021/04/03 01:35:26;;;;;;;6.05;4.85;;;5.10;90.70;;;;;;4811731;29;20309;-85
2021/04/03 01:37:59;;;;;;;6.70;5.75;;;5.20;90.90;;;;;;4810268;29;20249;-85
2021/04/03 01:40:26;;;;;;;5.55;4.88;;;5.20;90.70;;;;;;4810766;29;20214;-85
2021/04/03 01:42:57;;;;;;;7.78;5.85;;;5.20;90.60;;;;;;4810368;29;20241;-84
2021/04/03 01:45:25;;;;;;;6.53;5.18;;;5.20;90.80;;;;;;4810871;29;20222;-85
2021/04/03 01:47:53;;;;;;;7.85;5.55;;;5.30;90.70;;;;;;4810815;29;20234;-85
2021/04/03 01:50:21;;;;;;;8.10;5.75;;;5.30;90.50;;;;;;4810618;29;20214;-85
2021/04/03 01:52:49;;;;;;;5.60;5.10;;;5.30;90.40;;;;;;4810609;29;20211;-86
2021/04/03 01:55:16;;;;;;;8.05;5.25;;;5.30;90.40;;;;;;4811562;29;20215;-84
2021/04/03 01:57:51;;;;;;;5.60;5.10;;;5.30;90.30;;;;;;4814084;29;20287;-85
2021/04/03 02:00:22;;;;;;;5.45;5.05;;;5.30;90.30;;;;;;4814756;29;20213;-85
2021/04/03 02:02:50;;;;;;;6.32;5.15;;;5.20;90.30;;;;;;4814279;29;20230;-85
2021/04/03 02:05:17;;;;;;;5.70;5.25;;;5.20;90.30;;;;;;4813989;29;20305;-85
2021/04/03 02:07:46;;;;;;;9.50;5.60;;;5.20;90.30;;;;;;4813700;29;20234;-84
2021/04/03 02:10:15;;;;;;;6.60;5.03;;;5.30;90.40;;;;;;4814486;29;20222;-85
2021/04/03 02:12:43;;;;;;;7.75;5.30;;;5.20;90.40;;;;;;4814203;29;20267;-84
2021/04/03 02:15:11;;;;;;;9.00;6.05;;;5.10;90.50;;;;;;4812852;29;20658;-85
2021/04/03 02:17:38;;;;;;;8.50;5.93;;;5.00;90.70;;;;;;4813029;29;20240;-84
2021/04/03 02:20:07;;;;;;;7.47;5.32;;;5.00;90.70;;;;;;4814079;29;20263;-85
2021/04/03 02:22:34;;;;;;;5.90;5.05;;;5.00;90.90;;;;;;4814275;29;20649;-85
2021/04/03 02:25:07;;;;;;;7.20;6.60;;;5.10;91.00;;;;;;4813555;29;20218;-85
2021/04/03 02:27:34;;;;;;;7.28;5.65;;;5.00;91.10;;;;;;4813488;29;20658;-83
2021/04/03 02:30:12;;;;;;;6.55;5.65;;;5.00;91.20;;;;;;4813698;29;20236;-84
2021/04/03 02:32:42;;;;;;;6.68;6.03;;;5.00;91.50;;;;;;4813738;29;20245;-84
2021/04/03 02:35:11;;;;;;;8.65;6.97;;;5.00;91.60;;;;;;4814251;29;20733;-84
2021/04/03 02:37:37;;;;;;;8.75;6.88;;;5.00;91.80;;;;;;4814033;29;20241;-84
2021/04/03 02:40:06;;;;;;;10.27;7.47;;;5.00;92.00;;;;;;4813472;29;20642;-84
2021/04/03 02:42:37;;;;;;;7.32;5.43;;;4.90;92.20;;;;;;4813978;29;20237;-84
2021/04/03 02:45:09;;;;;;;8.60;6.43;;;5.00;92.20;;;;;;4814121;29;20191;-84
2021/04/03 02:47:40;;;;;;;10.38;7.03;;;5.00;92.40;;;;;;4811042;29;20325;-84
2021/04/03 02:50:13;;;;;;;6.78;6.07;;;5.00;92.40;;;;;;4813850;29;20198;-84
2021/04/03 02:52:40;;;;;;;7.18;5.63;;;4.90;92.60;;;;;;4808774;29;20218;-84
2021/04/03 02:55:09;;;;;;;7.07;6.32;;;4.90;92.70;;;;;;4815914;29;20225;-85
2021/04/03 02:57:37;;;;;;;6.43;5.20;;;4.90;92.70;;;;;;4816062;29;20261;-85
2021/04/03 03:00:06;;;;;;;6.78;5.97;;;4.80;92.80;;;;;;4817022;29;20219;-84
2021/04/03 03:02:34;;;;;;;8.43;6.30;;;4.80;92.80;;;;;;4815163;29;20242;-84
2021/04/03 03:05:02;;;;;;;9.30;6.22;;;4.80;92.90;;;;;;4818807;29;20221;-84
2021/04/03 03:07:33;;;;;;;7.32;5.82;;;4.90;92.80;;;;;;4817957;29;20234;-84
2021/04/03 03:09:59;;;;;;;8.68;6.75;;;4.90;92.90;;;;;;4816208;29;20271;-85
2021/04/03 03:12:29;;;;;;;7.63;5.25;;;4.90;92.70;;;;;;4814956;29;20214;-84
2021/04/03 03:15:00;;;;;;;6.38;5.80;;;4.90;92.60;;;;;;4814894;29;20224;-84
2021/04/03 03:17:27;;;;;;;9.13;5.25;;;4.80;92.80;;;;;;4815788;29;20287;-83
2021/04/03 03:19:55;;;;;;;6.72;5.60;;;4.80;92.80;;;;;;4815606;29;20277;-85
2021/04/03 03:22:25;;;;;;;8.02;4.78;;;4.80;92.90;;;;;;4816967;29;20234;-83
2021/04/03 03:24:52;;;;;;;5.82;4.50;;;4.90;92.80;;;;;;4817795;29;20287;-84
2021/04/03 03:27:20;;;;;;;7.80;5.03;;;4.90;92.50;;;;;;4813225;29;20235;-85
2021/04/03 03:29:47;;;;;;;5.80;5.05;;;4.90;92.40;;;;;;4817813;29;20214;-84
2021/04/03 03:32:14;;;;;;;8.82;4.25;;;4.90;92.40;;;;;;4816441;29;20218;-84
2021/04/03 03:34:40;;;;;;;5.57;4.82;;;4.80;92.40;;;;;;4822509;29;20233;-82
2021/04/03 03:37:06;;;;;;;11.82;5.55;;;4.80;92.80;;;;;;4823635;29;20299;-85
2021/04/03 03:39:35;;;;;;;5.35;3.85;;;4.90;92.50;;;;;;4818828;29;20223;-84
2021/04/03 03:42:04;;;;;;;5.50;4.57;;;4.80;92.00;;;;;;4815118;29;20235;-84
2021/04/03 03:44:31;;;;;;;7.75;4.72;;;4.70;91.90;;;;;;4816815;29;20279;-84
2021/04/03 03:46:57;;;;;;;4.78;4.28;;;4.70;92.00;;;;;;4819234;29;20288;-84
2021/04/03 03:49:23;;;;;;;7.75;5.03;;;4.70;92.10;;;;;;4813816;29;20214;-83
2021/04/03 03:51:50;;;;;;;6.50;5.30;;;4.50;92.40;;;;;;4813968;29;20580;-84
2021/04/03 03:54:16;;;;;;;6.82;4.90;;;4.40;93.00;;;;;;4818687;29;20222;-84
2021/04/03 03:56:42;;;;;;;6.18;5.25;;;4.40;93.10;;;;;;4813414;29;20246;-83
2021/04/03 03:59:09;;;;;;;5.72;4.97;;;4.30;93.10;;;;;;4813859;29;20211;-84
2021/04/03 04:01:35;;;;;;;5.22;4.80;;;4.40;93.00;;;;;;4813664;29;20234;-83
2021/04/03 04:04:02;;;;;;;8.45;5.65;;;4.40;93.10;;;;;;4815049;29;20222;-83
2021/04/03 04:06:28;;;;;;;6.28;4.43;;;4.30;93.10;;;;;;4815206;29;20210;-83
2021/04/03 04:08:55;;;;;;;7.30;5.18;;;4.30;93.30;;;;;;4816163;29;20218;-84
2021/04/03 04:11:22;;;;;;;9.52;5.05;;;4.30;93.20;;;;;;4812655;29;20240;-84
2021/04/03 04:13:48;;;;;;;9.82;4.82;;;4.20;93.50;;;;;;4815765;29;20210;-84
2021/04/03 04:16:15;;;;;;;7.70;5.05;;;4.20;93.50;;;;;;4812499;29;20214;-83
2021/04/03 04:18:41;;;;;;;4.93;4.53;;;4.20;93.80;;;;;;4812294;29;20327;-82
2021/04/03 04:21:07;;;;;;;5.55;4.47;;;4.10;93.90;;;;;;4813591;29;20203;-83
2021/04/03 04:23:34;;;;;;;5.60;5.10;;;4.10;94.10;;;;;;4816178;29;20222;-83
2021/04/03 04:26:00;;;;;;;6.50;4.32;;;4.10;94.10;;;;;;4829620;29;20218;-82
2021/04/03 04:28:26;;;;;;;5.88;5.28;;;4.10;94.20;;;;;;4830022;29;20610;-84
2021/04/03 04:30:52;;;;;;;7.28;4.88;;;4.00;94.50;;;;;;4830882;29;20273;-90
2021/04/03 04:33:19;;;;;;;5.43;4.65;;;4.10;94.60;;;;;;4828491;29;20199;-85
2021/04/03 04:35:48;;;;;;;4.60;4.07;;;4.10;94.60;;;;;;4812025;29;20251;-87
2021/04/03 04:38:14;;;;;;;6.22;5.30;;;4.00;94.70;;;;;;4810266;29;20230;-86
2021/04/03 04:40:40;;;;;;;5.72;5.22;;;4.00;94.80;;;;;;4810875;29;20210;-84
2021/04/03 07:28:22;;;;;;;4.07;3.35;;;6.00;93.00;;;;;;4707208;30;20246;-86
2021/04/03 07:34:24;;;;;;;;;;;;;;;;;;;;;
2021/04/03 07:37:23;;;;;;;;;;;;;;;;;;;;;
2021/04/03 07:40:30;;;;;;;5.85;4.32;;;6.20;91.00;;;;;;4811485;29;20404;-86
2021/04/03 07:43:34;;;;;;;4.63;3.03;;;6.10;91.50;;;;;;4811976;29;20234;-83
2021/04/03 07:50:21;;;;;;;4.28;3.85;;;5.90;91.50;;;;;;4800607;29;20294;-83
2021/04/03 07:53:57;;;;;;;;;;;;;;;;;;;;;
2021/04/03 08:00:39;;;;;;;4.80;3.50;;;6.20;90.40;;;;;;4653862;30;20243;-83
2021/04/03 08:06:50;;;;;;;3.47;3.25;;;6.60;90.40;;;;;;4790914;29;20203;-88
2021/04/03 08:16:31;;;;;;;4.57;3.47;;;7.70;87.10;;;;;;4788175;29;20229;-87
2021/04/03 08:19:32;;;;;;;4.22;3.65;;;7.60;85.80;;;;;;4816668;29;20203;-87
2021/04/03 08:22:51;;;;;;;;;;;;;;;;;;;;;
2021/04/03 08:32:29;;;;;;;4.30;3.30;;;6.70;85.00;;;;;;4737557;30;20206;-84
2021/04/03 08:52:40;;;;;;;4.03;3.63;;;6.40;86.60;;;;;;4672874;30;20215;-86
2021/04/03 09:13:11;;;;;;;;;;;;;;;;;;;;;
2021/04/03 09:26:44;;;;;;;3.47;3.13;;;7.60;82.70;;;;;;4709576;30;20213;-84
2021/04/03 09:35:48;;;;;;;3.42;3.13;;;8.10;80.60;;;;;;4805759;29;20682;-82
2021/04/03 09:38:37;;;;;;;3.30;2.65;;;8.30;80.00;;;;;;4820963;29;20238;-84
2021/04/03 09:44:59;;;;;;;4.50;2.42;;;8.60;77.40;;;;;;4767764;30;20217;-83
2021/04/03 09:50:17;;;;;;;4.33;3.53;;;9.00;74.30;;;;;;4815045;29;20212;-86
2021/04/03 09:53:07;;;;;;;2.73;2.17;;;9.30;73.10;;;;;;4819665;29;20450;-84
2021/04/03 09:56:10;;;;;;;5.20;2.58;;;9.10;71.30;;;;;;4832421;29;20998;-81
2021/04/03 10:01:50;;;;;;;2.10;2.00;;;9.20;71.80;;;;;;4811725;29;20223;-84
2021/04/03 10:04:26;;;;;;;5.25;2.63;;;9.00;69.10;;;;;;4823303;29;20203;-85
2021/04/03 10:06:53;;;;;;;2.70;2.50;;;9.00;70.50;;;;;;4818499;29;20648;-85
2021/04/03 10:09:20;;;;;;;4.63;3.03;;;8.90;70.30;;;;;;4811388;29;20219;-85
2021/04/03 10:11:51;;;;;;;3.20;2.92;;;9.20;71.70;;;;;;4811883;29;20446;-85
2021/04/03 10:14:26;;;;;;;4.80;3.00;;;9.00;70.80;;;;;;4811177;29;20212;-85
2021/04/03 10:17:03;;;;;;;2.70;2.50;;;9.20;72.40;;;;;;4810179;29;20485;-85
2021/04/03 10:19:42;;;;;;;;;;;;;;;;;;;;;
2021/04/03 10:22:08;;;;;;;3.90;2.67;;;9.30;68.40;;;;;;4813981;29;22409;-82
2021/04/03 10:24:40;;;;;;;3.30;3.00;;;9.30;69.90;;;;;;4815686;29;20463;-85
2021/04/03 10:27:08;;;;;;;6.03;2.33;;;9.50;70.30;;;;;;4814552;29;20471;-82
2021/04/03 10:29:36;;;;;;;4.47;3.20;;;9.50;68.40;;;;;;4814454;29;20465;-82
2021/04/03 10:32:05;;;;;;;2.70;2.50;;;9.60;69.10;;;;;;4814293;29;20459;-83
2021/04/03 10:34:36;;;;;;;3.93;3.63;;;9.90;69.60;;;;;;4813893;29;20537;-82
2021/04/03 10:44:28;;;;;;;6.73;2.50;;;10.00;64.60;;;;;;4731356;30;20508;-85
2021/04/03 10:46:58;;;;;;;4.40;4.07;;;10.10;64.90;;;;;;4742753;30;20500;-81
2021/04/03 10:49:29;;;;;;;7.70;3.23;;;10.20;65.50;;;;;;4774129;29;20474;-81
2021/04/03 10:52:08;;;;;;;4.87;3.00;;;10.10;64.40;;;;;;4816144;29;20962;-81
2021/04/03 10:54:48;;;;;;;3.10;2.63;;;10.10;65.20;;;;;;4815328;29;20465;-82
2021/04/03 10:57:22;;;;;;;4.77;2.80;;;10.00;66.10;;;;;;4814246;29;20506;-80
2021/04/03 10:59:52;;;;;;;8.03;3.20;;;10.00;66.40;;;;;;4814051;29;20469;-82
2021/04/03 11:02:42;;;;;;;4.70;3.00;;;9.90;66.20;;;;;;4813891;29;20492;-80
2021/04/03 11:05:28;;;;;;;;;;;;;;;;;;;;;
2021/04/03 11:07:55;;;;;;;2.50;2.30;;;10.10;64.10;;;;;;4813942;29;21057;-82
2021/04/03 11:10:29;;;;;;;4.13;2.30;;;10.80;65.50;;;;;;4813778;29;20490;-80
2021/04/03 11:13:02;;;;;;;5.40;2.87;;;11.70;63.50;;;;;;4814042;29;20502;-80
2021/04/03 11:15:29;;;;;;;3.80;3.00;;;12.70;59.80;;;;;;4813758;29;20473;-83
2021/04/03 11:18:03;;;;;;;3.57;2.57;;;12.90;56.80;;;;;;4814052;29;20491;-82
2021/04/03 11:20:38;;;;;;;5.53;2.90;;;12.70;56.20;;;;;;4814188;29;20484;-83
2021/04/03 11:23:06;;;;;;;2.90;2.30;;;12.10;55.70;;;;;;4813048;29;20491;-82
2021/04/03 11:25:38;;;;;;;4.23;3.03;;;12.20;57.70;;;;;;4813689;29;20539;-82
2021/04/03 11:28:11;;;;;;;3.83;2.50;;;12.40;57.50;;;;;;4813498;29;20522;-82
2021/04/03 11:30:37;;;;;;;4.27;2.77;;;12.00;55.60;;;;;;4813390;29;20476;-82
2021/04/03 11:33:05;;;;;;;3.13;2.03;;;12.10;57.90;;;;;;4813209;29;20476;-82
2021/04/03 11:35:39;;;;;;;3.13;2.30;;;12.20;55.40;;;;;;4814149;29;20459;-82
2021/04/03 11:38:13;;;;;;;2.73;2.40;;;12.70;55.90;;;;;;4812843;29;20480;-82
2021/04/03 11:40:44;;;;;;;2.50;2.30;;;13.00;55.20;;;;;;4813860;29;20444;-82
2021/04/03 11:43:14;;;;;;;3.90;2.83;;;12.80;54.50;;;;;;4812552;29;20492;-82
2021/04/03 11:45:52;;;;;;;3.17;2.60;;;12.50;54.80;;;;;;4813515;29;20467;-82
2021/04/03 11:48:28;;;;;;;4.17;3.23;;;12.20;55.00;;;;;;4813085;29;20511;-82
2021/04/03 11:50:58;;;;;;;3.37;2.70;;;12.30;56.00;;;;;;4813751;29;20468;-82
2021/04/03 11:53:24;;;;;;;3.23;2.30;;;12.70;55.60;;;;;;4813077;29;20464;-82
2021/04/03 11:55:57;;;;;;;3.40;3.10;;;13.30;55.50;;;;;;4813215;29;20482;-82
2021/04/03 11:58:31;;;;;;;2.27;2.07;;;14.20;56.00;;;;;;4813571;29;20451;-82
2021/04/03 12:01:05;;;;;;;2.47;2.27;;;15.40;52.50;;;;;;4812966;29;20835;-83
2021/04/03 12:03:36;;;;;;;2.60;2.40;;;15.60;49.00;;;;;;4812944;29;20499;-83
2021/04/03 12:06:15;;;;;;;2.40;2.20;;;15.30;49.00;;;;;;4813888;29;20456;-83
2021/04/03 12:08:47;;;;;;;1.80;1.70;;;14.70;47.30;;;;;;4813072;29;20949;-83
2021/04/03 12:11:15;;;;;;;4.13;3.00;;;14.30;48.20;;;;;;4813027;29;20479;-82
2021/04/03 12:13:42;;;;;;;2.87;2.57;;;13.90;49.20;;;;;;4813148;29;20452;-82
2021/04/03 12:16:14;;;;;;;4.30;2.53;;;13.20;50.20;;;;;;4813345;29;20472;-81
2021/04/03 12:18:43;;;;;;;2.53;2.30;;;13.30;51.90;;;;;;4812707;29;20508;-82
2021/04/03 12:21:13;;;;;;;3.60;2.17;;;13.40;52.50;;;;;;4812775;29;20444;-82
2021/04/03 12:23:48;;;;;;;3.00;2.70;;;13.70;52.10;;;;;;4813083;29;20855;-82
2021/04/03 12:26:18;;;;;;;2.73;2.53;;;14.00;51.90;;;;;;4813310;29;20939;-82
2021/04/03 12:28:55;;;;;;;2.70;2.50;;;14.10;51.00;;;;;;4812311;29;20515;-82
2021/04/03 12:31:51;;;;;;;3.83;2.00;;;14.30;51.20;;;;;;4812647;29;20455;-83
2021/04/03 12:34:25;;;;;;;3.03;2.73;;;14.20;48.70;;;;;;4812847;29;20466;-82
2021/04/03 12:36:57;;;;;;;3.13;2.30;;;14.90;50.50;;;;;;4812397;29;20497;-83
2021/04/03 12:39:59;;;;;;;3.20;1.90;;;15.90;48.50;;;;;;4817515;29;20488;-82
2021/04/03 12:42:41;;;;;;;3.20;2.77;;;16.80;44.80;;;;;;4820829;29;20531;-82
2021/04/03 12:45:32;;;;;;;2.53;2.07;;;17.00;44.60;;;;;;4820389;29;20465;-82
2021/04/03 12:54:11;;;;;;;4.40;2.87;;;16.00;43.70;;;;;;4793415;29;20547;-82
2021/04/03 12:56:47;;;;;;;2.13;1.97;;;15.00;44.90;;;;;;4807372;29;20477;-82
2021/04/03 12:59:26;;;;;;;2.60;2.30;;;14.60;46.10;;;;;;4814202;29;21076;-83
2021/04/03 13:56:56;;;;;;;;;;;;;;;;;;;;;
2021/04/03 14:03:38;;;;;;;;;;;;;;;;;;;;;
2021/04/03 14:06:32;;;;;;;3.37;2.47;;;14.10;44.30;;;;;;4779107;29;20543;-83
2021/04/03 15:07:36;;;;;;;3.43;2.70;;;13.40;41.80;;;;;;4618245;30;20492;-83
2021/04/03 15:10:17;;;;;;;;;;;;;;;;;;;;;
2021/04/03 15:12:53;;;;;;;2.40;2.00;;;13.00;42.50;;;;;;4814471;29;20536;-83
2021/04/03 15:15:35;;;;;;;2.30;1.73;;;13.10;43.40;;;;;;4814660;29;20585;-81
2021/04/03 15:21:08;;;;;;;3.53;1.93;;;13.20;42.80;;;;;;4787848;29;20475;-83
2021/04/03 15:23:43;;;;;;;3.30;3.10;;;13.10;43.10;;;;;;4801429;29;20554;-82
2021/04/03 15:26:12;;;;;;;1.90;1.80;;;12.90;43.40;;;;;;4811203;29;20865;-84
2021/04/03 15:28:40;;;;;;;3.60;2.23;;;13.10;43.20;;;;;;4811676;29;20483;-84
2021/04/03 15:31:06;;;;;;;2.00;1.80;;;13.00;43.20;;;;;;4812181;29;20573;-83
2021/04/03 15:33:35;;;;;;;5.00;1.97;;;13.20;43.60;;;;;;4811748;29;20467;-82
2021/04/03 15:36:01;;;;;;;2.20;1.70;;;13.30;44.70;;;;;;4812168;29;20504;-83
2021/04/03 15:38:28;;;;;;;2.97;1.90;;;13.70;43.90;;;;;;4812147;29;20484;-83
2021/04/03 15:40:55;;;;;;;2.33;2.10;;;13.80;43.60;;;;;;4814057;29;20464;-83
2021/04/03 15:43:21;;;;;;;2.30;2.13;;;13.90;42.30;;;;;;4816060;29;20495;-82
2021/04/03 15:45:47;;;;;;;3.80;1.67;;;14.10;42.80;;;;;;4815718;29;20468;-82
2021/04/03 15:48:14;;;;;;;3.30;2.33;;;13.70;41.50;;;;;;4812869;29;20484;-82
2021/04/03 15:50:40;;;;;;;2.47;1.97;;;13.70;42.30;;;;;;4813079;29;20493;-82
2021/04/03 15:53:07;;;;;;;2.87;2.07;;;13.60;42.40;;;;;;4813966;29;20455;-82
2021/04/03 15:55:33;;;;;;;2.03;1.93;;;13.20;41.70;;;;;;4805195;29;20455;-82
2021/04/03 15:58:03;;;;;;;3.87;1.83;;;13.20;42.80;;;;;;4811513;29;21029;-82
2021/04/03 16:00:32;;;;;;;3.80;2.50;;;13.20;43.00;;;;;;4809539;29;20456;-83
2021/04/03 16:02:59;;;;;;;3.77;1.77;;;13.30;43.60;;;;;;4811804;29;20496;-83
2021/04/03 16:05:25;;;;;;;1.97;1.87;;;13.40;43.30;;;;;;4811661;29;20471;-85
2021/04/03 16:07:51;;;;;;;3.07;1.63;;;13.40;42.90;;;;;;4811135;29;20480;-83
2021/04/03 16:10:17;;;;;;;2.03;1.90;;;13.60;42.90;;;;;;4811598;29;20470;-84
2021/04/03 16:12:43;;;;;;;2.20;2.00;;;13.60;42.80;;;;;;4810349;29;20523;-84
2021/04/03 16:15:12;;;;;;;2.60;1.80;;;13.60;43.10;;;;;;4812798;29;20974;-83
2021/04/03 16:17:38;;;;;;;3.83;2.50;;;13.50;42.70;;;;;;4814084;29;20480;-83
2021/04/03 16:20:05;;;;;;;5.17;3.13;;;13.20;43.30;;;;;;4813191;29;20528;-83
2021/04/03 16:22:34;;;;;;;5.10;2.43;;;13.00;43.90;;;;;;4813169;29;20539;-81
2021/04/03 16:25:01;;;;;;;2.40;1.83;;;12.80;43.60;;;;;;4813782;29;20474;-83
2021/04/03 16:27:27;;;;;;;12.03;8.43;;;12.60;43.90;;;;;;4813660;29;20487;-83
2021/04/03 16:29:53;;;;;;;4.63;4.13;;;12.30;44.70;;;;;;4821346;29;20455;-84
2021/04/03 16:32:20;;;;;;;2.53;2.33;;;12.20;45.10;;;;;;4824265;29;20487;-83
2021/04/03 16:34:46;;;;;;;3.97;2.33;;;11.90;44.40;;;;;;4819866;29;20504;-84
2021/04/03 16:37:13;;;;;;;5.37;2.80;;;11.70;44.80;;;;;;4823631;29;20470;-84
2021/04/03 16:39:39;;;;;;;3.20;2.43;;;11.70;44.80;;;;;;4829092;29;20459;-83
2021/04/03 16:42:06;;;;;;;3.80;2.47;;;11.70;45.40;;;;;;4826543;29;20472;-83
2021/04/03 16:44:33;;;;;;;2.67;2.37;;;11.70;45.80;;;;;;4835179;29;20486;-83
2021/04/03 16:47:00;;;;;;;3.27;2.13;;;11.70;46.10;;;;;;4826516;29;20557;-83
2021/04/03 16:49:27;;;;;;;4.47;3.10;;;11.50;45.50;;;;;;4814737;29;20505;-83
2021/04/03 16:51:53;;;;;;;3.30;3.10;;;11.50;45.90;;;;;;4814021;29;20471;-84
2021/04/03 16:54:19;;;;;;;3.43;3.10;;;11.60;46.00;;;;;;4817483;29;20538;-83
2021/04/03 16:56:46;;;;;;;4.03;2.90;;;11.70;46.30;;;;;;4824837;29;20613;-84
2021/04/03 16:59:12;;;;;;;3.90;3.50;;;11.60;46.60;;;;;;4824749;29;20477;-83
2021/04/03 17:01:38;;;;;;;2.93;2.67;;;11.70;46.90;;;;;;4824641;29;20451;-81
2021/04/03 17:04:05;;;;;;;7.27;2.93;;;11.50;45.70;;;;;;4835231;29;20502;-84
2021/04/03 17:06:32;;;;;;;2.60;2.40;;;11.40;45.70;;;;;;4833487;29;20481;-83
2021/04/03 17:08:58;;;;;;;2.67;2.40;;;11.30;45.90;;;;;;4833049;29;20458;-82
2021/04/03 17:11:24;;;;;;;2.70;2.50;;;11.30;46.70;;;;;;4832554;29;20468;-83
2021/04/03 17:13:51;;;;;;;3.67;2.60;;;11.30;46.90;;;;;;4831939;29;20836;-84
2021/04/03 17:16:17;;;;;;;2.40;2.20;;;11.30;46.80;;;;;;4833168;29;20850;-83
2021/04/03 17:18:43;;;;;;;2.37;2.23;;;11.10;46.50;;;;;;4831915;29;20478;-83
2021/04/03 17:21:09;;;;;;;2.27;2.13;;;11.00;46.60;;;;;;4831127;29;20462;-83
2021/04/03 17:23:37;;;;;;;3.70;3.30;;;11.20;46.70;;;;;;4824994;29;20494;-84
2021/04/03 17:26:03;;;;;;;3.17;2.07;;;11.30;47.20;;;;;;4824946;29;20519;-83
2021/04/03 17:28:30;;;;;;;4.20;2.60;;;11.40;47.20;;;;;;4830204;29;20510;-84
2021/04/03 17:30:57;;;;;;;2.80;2.03;;;11.50;46.70;;;;;;4830180;29;20477;-84
2021/04/03 17:33:24;;;;;;;3.30;2.57;;;11.40;46.60;;;;;;4830185;29;20550;-84
2021/04/03 17:35:50;;;;;;;2.60;2.40;;;11.40;46.50;;;;;;4830159;29;20531;-83
2021/04/03 17:38:16;;;;;;;2.60;2.40;;;11.30;46.60;;;;;;4830297;29;20518;-83
2021/04/03 17:40:43;;;;;;;5.13;3.10;;;11.20;47.20;;;;;;4830299;29;20530;-82
2021/04/03 17:43:10;;;;;;;3.20;3.00;;;11.00;47.20;;;;;;4830070;29;20502;-83
2021/04/03 17:45:36;;;;;;;5.77;3.90;;;11.00;47.90;;;;;;4831635;29;20465;-83
2021/04/03 17:48:02;;;;;;;3.80;3.10;;;11.00;48.50;;;;;;4831338;29;20484;-83
2021/04/03 17:50:29;;;;;;;4.27;3.70;;;10.90;48.10;;;;;;4833576;29;20747;-85
2021/04/03 17:52:55;;;;;;;3.57;2.50;;;10.80;48.70;;;;;;4832759;29;20457;-84
2021/04/03 17:55:21;;;;;;;3.33;3.03;;;10.70;48.80;;;;;;4833468;29;20471;-83
2021/04/03 17:57:48;;;;;;;2.37;2.17;;;10.70;49.10;;;;;;4833510;29;20508;-84
2021/04/03 18:00:16;;;;;;;2.60;2.23;;;10.60;49.00;;;;;;4833555;29;20465;-84
2021/04/03 18:02:43;;;;;;;1.93;1.73;;;10.60;49.00;;;;;;4832877;29;20466;-84
2021/04/03 18:05:10;;;;;;;3.00;2.63;;;10.60;48.70;;;;;;4833298;29;20465;-83
2021/04/03 18:07:36;;;;;;;4.77;2.47;;;10.60;49.10;;;;;;4833174;29;20485;-84
2021/04/03 18:10:04;;;;;;;2.10;2.00;;;10.60;49.10;;;;;;4833665;29;20469;-84
2021/04/03 18:12:30;;;;;;;4.97;2.00;;;10.60;49.50;;;;;;4833502;29;20462;-84
2021/04/03 18:14:57;;;;;;;2.17;1.90;;;10.60;49.50;;;;;;4833175;29;20521;-84
2021/04/03 18:17:27;;;;;;;2.30;2.13;;;10.50;49.70;;;;;;4833158;29;20511;-83
2021/04/03 18:19:53;;;;;;;2.17;1.80;;;10.50;49.40;;;;;;4834609;29;20458;-84
2021/04/03 18:22:21;;;;;;;2.80;2.33;;;10.50;49.60;;;;;;4832924;29;20469;-84
2021/04/03 18:24:47;;;;;;;2.47;2.27;;;10.40;49.50;;;;;;4833680;29;20560;-84
2021/04/03 18:27:14;;;;;;;1.60;1.50;;;10.40;49.70;;;;;;4834136;29;20485;-84
2021/04/03 18:29:40;;;;;;;2.13;2.03;;;10.40;50.00;;;;;;4835027;29;20465;-84
2021/04/03 18:32:09;;;;;;;3.70;2.63;;;10.30;50.00;;;;;;4839269;29;20465;-83
2021/04/03 18:34:35;;;;;;;3.00;1.40;;;10.30;50.00;;;;;;4842298;29;20467;-83
2021/04/03 18:37:02;;;;;;;2.67;2.43;;;10.30;50.20;;;;;;4842107;29;20478;-83
2021/04/03 18:39:30;;;;;;;3.57;1.80;;;10.30;50.40;;;;;;4840450;29;20474;-83
2021/04/03 18:41:57;;;;;;;5.13;2.20;;;10.30;51.00;;;;;;4840099;29;20462;-82
2021/04/03 18:44:23;;;;;;;7.70;2.20;;;10.30;51.20;;;;;;4840424;29;20501;-82
2021/04/03 18:46:49;;;;;;;6.50;4.50;;;10.30;51.30;;;;;;4840055;29;20472;-82
2021/04/03 18:49:16;;;;;;;2.80;2.10;;;10.30;51.20;;;;;;4840076;29;20520;-81
2021/04/03 18:51:43;;;;;;;3.90;2.13;;;10.30;51.60;;;;;;4839942;29;20468;-82
2021/04/03 18:54:09;;;;;;;4.93;2.37;;;10.30;52.10;;;;;;4842153;29;20453;-81
2021/04/03 18:56:35;;;;;;;6.77;3.03;;;10.30;52.70;;;;;;4843474;29;20814;-81
2021/04/03 18:59:01;;;;;;;3.07;2.30;;;10.30;52.10;;;;;;4843464;29;20513;-82
2021/04/03 19:01:27;;;;;;;4.00;2.70;;;10.30;52.10;;;;;;4843833;29;20457;-81
2021/04/03 19:03:54;;;;;;;4.97;2.57;;;10.20;52.00;;;;;;4843695;29;20235;-81
2021/04/03 19:06:21;;;;;;;3.10;2.63;;;10.20;52.00;;;;;;4843516;29;20456;-81
2021/04/03 19:08:47;;;;;;;3.10;2.90;;;10.10;51.60;;;;;;4845900;29;20472;-82
2021/04/03 19:11:13;;;;;;;6.63;3.40;;;10.10;51.70;;;;;;4847692;29;20467;-81
2021/04/03 19:13:40;;;;;;;4.30;2.97;;;10.00;52.00;;;;;;4849296;29;20448;-81
2021/04/03 19:16:06;;;;;;;3.60;2.80;;;9.90;52.60;;;;;;4848111;29;20469;-84
2021/04/03 19:18:35;;;;;;;3.90;3.50;;;9.90;52.70;;;;;;4840397;29;20512;-82
2021/04/03 19:21:01;;;;;;;4.03;3.67;;;9.80;52.90;;;;;;4839431;29;20583;-84
2021/04/03 19:23:28;;;;;;;2.90;2.70;;;9.80;53.10;;;;;;4838916;29;20505;-81
2021/04/03 19:25:55;;;;;;;3.37;3.07;;;9.70;53.70;;;;;;4838725;29;20444;-83
2021/04/03 19:28:21;;;;;;;3.30;3.00;;;9.60;53.90;;;;;;4838745;29;20496;-82
2021/04/03 19:30:47;;;;;;;3.57;3.27;;;9.60;54.00;;;;;;4839750;29;20466;-83
2021/04/03 19:33:14;;;;;;;3.97;3.20;;;9.50;54.00;;;;;;4839241;29;20453;-82
2021/04/03 19:35:40;;;;;;;5.23;4.03;;;9.40;54.20;;;;;;4840133;29;20535;-83
2021/04/03 19:38:07;;;;;;;5.05;4.05;;;9.30;54.30;;;;;;4838454;29;20994;-83
2021/04/03 19:40:36;;;;;;;4.10;3.70;;;9.20;54.20;;;;;;4838904;29;20681;-83
2021/04/03 19:43:02;;;;;;;4.90;4.40;;;9.20;54.40;;;;;;4838115;29;20219;-84
2021/04/03 19:45:28;;;;;;;4.40;4.00;;;9.20;55.00;;;;;;4837611;29;20456;-84
2021/04/03 19:47:55;;;;;;;4.87;4.10;;;9.10;55.30;;;;;;4838769;29;20543;-83
2021/04/03 19:50:21;;;;;;;5.40;4.90;;;9.10;55.50;;;;;;4838207;29;20767;-85